Home > Products > Valid Products > TAF

000
FTUS43 KDMX 222327
TAFALO
TAF
KALO 222327Z 2300/2324 VRB03KT P6SM SCT100 BKN200
     FM231500 15012KT P6SM SCT080 BKN150=



000
FTUS43 KDMX 222327
TAFDSM
TAF
KDSM 222327Z 2300/2324 20005KT P6SM SCT090 BKN150
     FM231500 15012KT P6SM SCT060 BKN200=



000
FTUS43 KDMX 222327
TAFMCW
TAF
KMCW 222327Z 2300/2324 24004KT P6SM SCT090 BKN200
     FM231500 15013G20KT P6SM SCT080 BKN150=



000
FTUS43 KDMX 222327
TAFOTM
TAF
KOTM 222327Z 2300/2324 VRB04KT P6SM SCT090 BKN150
     FM231500 16010KT P6SM SCT060 BKN200=



000
FTUS43 KDMX 222327
TAFALO
TAF
KALO 222327Z 2300/2324 VRB03KT P6SM SCT100 BKN200
     FM231500 15012KT P6SM SCT080 BKN150=



000
FTUS43 KDMX 222327
TAFMCW
TAF
KMCW 222327Z 2300/2324 24004KT P6SM SCT090 BKN200
     FM231500 15013G20KT P6SM SCT080 BKN150=



000
FTUS43 KDMX 222327
TAFOTM
TAF
KOTM 222327Z 2300/2324 VRB04KT P6SM SCT090 BKN150
     FM231500 16010KT P6SM SCT060 BKN200=



000
FTUS43 KDMX 222327
TAFFOD
TAF
KFOD 222327Z 2300/2324 VRB03KT P6SM BKN090
     FM231500 15007KT P6SM SCT040 BKN120
     FM231900 17011G18KT P6SM FEW050 BKN150=



000
FTUS43 KDMX 222327
TAFFOD
TAF
KFOD 222327Z 2300/2324 VRB03KT P6SM BKN090
     FM231500 15007KT P6SM SCT040 BKN120
     FM231900 17011G18KT P6SM FEW050 BKN150=



000
FTUS43 KDMX 222327
TAFDSM
TAF
KDSM 222327Z 2300/2324 20005KT P6SM SCT090 BKN150
     FM231500 15012KT P6SM SCT060 BKN200=



000
FTUS43 KDMX 222327
TAFDSM
TAF
KDSM 222327Z 2300/2324 20005KT P6SM SCT090 BKN150
     FM231500 15012KT P6SM SCT060 BKN200=



000
FTUS43 KDMX 222327
TAFALO
TAF
KALO 222327Z 2300/2324 VRB03KT P6SM SCT100 BKN200
     FM231500 15012KT P6SM SCT080 BKN150=



000
FTUS43 KDMX 222327
TAFFOD
TAF
KFOD 222327Z 2300/2324 VRB03KT P6SM BKN090
     FM231500 15007KT P6SM SCT040 BKN120
     FM231900 17011G18KT P6SM FEW050 BKN150=



000
FTUS43 KDMX 222327
TAFOTM
TAF
KOTM 222327Z 2300/2324 VRB04KT P6SM SCT090 BKN150
     FM231500 16010KT P6SM SCT060 BKN200=



000
FTUS43 KDMX 222327
TAFDSM
TAF
KDSM 222327Z 2300/2324 20005KT P6SM SCT090 BKN150
     FM231500 15012KT P6SM SCT060 BKN200=



000
FTUS43 KDMX 222327
TAFMCW
TAF
KMCW 222327Z 2300/2324 24004KT P6SM SCT090 BKN200
     FM231500 15013G20KT P6SM SCT080 BKN150=



000
FTUS43 KDMX 222327
TAFALO
TAF
KALO 222327Z 2300/2324 VRB03KT P6SM SCT100 BKN200
     FM231500 15012KT P6SM SCT080 BKN150=



000
FTUS43 KDMX 222327
TAFMCW
TAF
KMCW 222327Z 2300/2324 24004KT P6SM SCT090 BKN200
     FM231500 15013G20KT P6SM SCT080 BKN150=



000
FTUS43 KDMX 222327
TAFOTM
TAF
KOTM 222327Z 2300/2324 VRB04KT P6SM SCT090 BKN150
     FM231500 16010KT P6SM SCT060 BKN200=



000
FTUS43 KDMX 222327
TAFFOD
TAF
KFOD 222327Z 2300/2324 VRB03KT P6SM BKN090
     FM231500 15007KT P6SM SCT040 BKN120
     FM231900 17011G18KT P6SM FEW050 BKN150=



000
FTUS43 KDMX 221732
TAFMCW
TAF
KMCW 221732Z 2218/2318 VRB04KT P6SM SCT200
     FM230400 23005KT P6SM FEW060 BKN100
     FM230900 VRB03KT P6SM SCT040 BKN090=



000
FTUS43 KDMX 221732
TAFFOD
TAF
KFOD 221732Z 2218/2318 VRB04KT P6SM OVC200
     FM222300 19006KT P6SM BKN070 OVC100
     FM230600 15006KT P6SM BKN040 OVC060=



000
FTUS43 KDMX 221732
TAFOTM
TAF
KOTM 221732Z 2218/2318 29007KT P6SM BKN250
     FM230000 22006KT P6SM SCT080 OVC120
     FM231200 17007KT P6SM SCT060 BKN100=



000
FTUS43 KDMX 221732
TAFALO
TAF
KALO 221732Z 2218/2318 VRB04KT P6SM SKC
     FM222300 18007KT P6SM SCT150 BKN200
     FM230800 VRB04KT P6SM SCT060 BKN100=



000
FTUS43 KDMX 221732
TAFDSM
TAF
KDSM 221732Z 2218/2318 VRB04KT P6SM SCT150 OVC250
     FM230000 20006KT P6SM SCT060 OVC100
     FM231200 18007KT P6SM SCT070 BKN100=



000
FTUS43 KDMX 221732
TAFDSM
TAF
KDSM 221732Z 2218/2318 VRB04KT P6SM SCT150 OVC250
     FM230000 20006KT P6SM SCT060 OVC100
     FM231200 18007KT P6SM SCT070 BKN100=



000
FTUS43 KDMX 221732
TAFOTM
TAF
KOTM 221732Z 2218/2318 29007KT P6SM BKN250
     FM230000 22006KT P6SM SCT080 OVC120
     FM231200 17007KT P6SM SCT060 BKN100=



000
FTUS43 KDMX 221732
TAFMCW
TAF
KMCW 221732Z 2218/2318 VRB04KT P6SM SCT200
     FM230400 23005KT P6SM FEW060 BKN100
     FM230900 VRB03KT P6SM SCT040 BKN090=



000
FTUS43 KDMX 221732
TAFFOD
TAF
KFOD 221732Z 2218/2318 VRB04KT P6SM OVC200
     FM222300 19006KT P6SM BKN070 OVC100
     FM230600 15006KT P6SM BKN040 OVC060=



000
FTUS43 KDMX 221732
TAFALO
TAF
KALO 221732Z 2218/2318 VRB04KT P6SM SKC
     FM222300 18007KT P6SM SCT150 BKN200
     FM230800 VRB04KT P6SM SCT060 BKN100=



000
FTUS43 KDMX 221732
TAFOTM
TAF
KOTM 221732Z 2218/2318 29007KT P6SM BKN250
     FM230000 22006KT P6SM SCT080 OVC120
     FM231200 17007KT P6SM SCT060 BKN100=



000
FTUS43 KDMX 221732
TAFFOD
TAF
KFOD 221732Z 2218/2318 VRB04KT P6SM OVC200
     FM222300 19006KT P6SM BKN070 OVC100
     FM230600 15006KT P6SM BKN040 OVC060=



000
FTUS43 KDMX 221732
TAFALO
TAF
KALO 221732Z 2218/2318 VRB04KT P6SM SKC
     FM222300 18007KT P6SM SCT150 BKN200
     FM230800 VRB04KT P6SM SCT060 BKN100=



000
FTUS43 KDMX 221732
TAFMCW
TAF
KMCW 221732Z 2218/2318 VRB04KT P6SM SCT200
     FM230400 23005KT P6SM FEW060 BKN100
     FM230900 VRB03KT P6SM SCT040 BKN090=



000
FTUS43 KDMX 221732
TAFDSM
TAF
KDSM 221732Z 2218/2318 VRB04KT P6SM SCT150 OVC250
     FM230000 20006KT P6SM SCT060 OVC100
     FM231200 18007KT P6SM SCT070 BKN100=



000
FTUS43 KDMX 221732
TAFDSM
TAF
KDSM 221732Z 2218/2318 VRB04KT P6SM SCT150 OVC250
     FM230000 20006KT P6SM SCT060 OVC100
     FM231200 18007KT P6SM SCT070 BKN100=



000
FTUS43 KDMX 221732
TAFFOD
TAF
KFOD 221732Z 2218/2318 VRB04KT P6SM OVC200
     FM222300 19006KT P6SM BKN070 OVC100
     FM230600 15006KT P6SM BKN040 OVC060=



000
FTUS43 KDMX 221732
TAFOTM
TAF
KOTM 221732Z 2218/2318 29007KT P6SM BKN250
     FM230000 22006KT P6SM SCT080 OVC120
     FM231200 17007KT P6SM SCT060 BKN100=



000
FTUS43 KDMX 221732
TAFALO
TAF
KALO 221732Z 2218/2318 VRB04KT P6SM SKC
     FM222300 18007KT P6SM SCT150 BKN200
     FM230800 VRB04KT P6SM SCT060 BKN100=



000
FTUS43 KDMX 221732
TAFMCW
TAF
KMCW 221732Z 2218/2318 VRB04KT P6SM SCT200
     FM230400 23005KT P6SM FEW060 BKN100
     FM230900 VRB03KT P6SM SCT040 BKN090=



000
FTUS43 KDMX 221123
TAFDSM
TAF
KDSM 221123Z 2212/2312 29004KT P6SM SKC
     FM221700 21009KT P6SM SCT200
     FM230000 24005KT P6SM SCT070 BKN160
     FM231000 14006KT P6SM BKN060=



000
FTUS43 KDMX 221123
TAFFOD
TAF
KFOD 221123Z 2212/2312 VRB02KT P6SM SKC
     FM221600 19006KT P6SM SKC
     FM230000 18003KT P6SM BKN070 OVC100
     FM230900 14008KT P6SM BKN040 OVC060=



000
FTUS43 KDMX 221123
TAFOTM
TAF
KOTM 221123Z 2212/2312 29007KT P6SM SCT200
     FM221900 23008KT P6SM FEW070 BKN200
     FM230300 26004KT P6SM BKN090
     FM231000 12006KT P6SM BKN060=



000
FTUS43 KDMX 221123
TAFALO
TAF
KALO 221123Z 2212/2312 VRB03KT P6SM SKC
     FM221900 19007KT P6SM SCT200
     FM230400 19004KT P6SM FEW070 BKN130
     FM231000 21005KT P6SM BKN070=



000
FTUS43 KDMX 221123
TAFALO
TAF
KALO 221123Z 2212/2312 VRB03KT P6SM SKC
     FM221900 19007KT P6SM SCT200
     FM230400 19004KT P6SM FEW070 BKN130
     FM231000 21005KT P6SM BKN070=



000
FTUS43 KDMX 221123
TAFOTM
TAF
KOTM 221123Z 2212/2312 29007KT P6SM SCT200
     FM221900 23008KT P6SM FEW070 BKN200
     FM230300 26004KT P6SM BKN090
     FM231000 12006KT P6SM BKN060=



000
FTUS43 KDMX 221123
TAFMCW
TAF
KMCW 221123Z 2212/2312 29004KT P6SM SKC
     FM222100 20007KT P6SM BKN200
     FM230400 23005KT P6SM FEW080 BKN120
     FM230900 21005KT P6SM BKN080=



000
FTUS43 KDMX 221123
TAFFOD
TAF
KFOD 221123Z 2212/2312 VRB02KT P6SM SKC
     FM221600 19006KT P6SM SKC
     FM230000 18003KT P6SM BKN070 OVC100
     FM230900 14008KT P6SM BKN040 OVC060=



000
FTUS43 KDMX 221123
TAFMCW
TAF
KMCW 221123Z 2212/2312 29004KT P6SM SKC
     FM222100 20007KT P6SM BKN200
     FM230400 23005KT P6SM FEW080 BKN120
     FM230900 21005KT P6SM BKN080=



000
FTUS43 KDMX 221123
TAFOTM
TAF
KOTM 221123Z 2212/2312 29007KT P6SM SCT200
     FM221900 23008KT P6SM FEW070 BKN200
     FM230300 26004KT P6SM BKN090
     FM231000 12006KT P6SM BKN060=



000
FTUS43 KDMX 221123
TAFDSM
TAF
KDSM 221123Z 2212/2312 29004KT P6SM SKC
     FM221700 21009KT P6SM SCT200
     FM230000 24005KT P6SM SCT070 BKN160
     FM231000 14006KT P6SM BKN060=



000
FTUS43 KDMX 221123
TAFDSM
TAF
KDSM 221123Z 2212/2312 29004KT P6SM SKC
     FM221700 21009KT P6SM SCT200
     FM230000 24005KT P6SM SCT070 BKN160
     FM231000 14006KT P6SM BKN060=



000
FTUS43 KDMX 221123
TAFMCW
TAF
KMCW 221123Z 2212/2312 29004KT P6SM SKC
     FM222100 20007KT P6SM BKN200
     FM230400 23005KT P6SM FEW080 BKN120
     FM230900 21005KT P6SM BKN080=



000
FTUS43 KDMX 221123
TAFFOD
TAF
KFOD 221123Z 2212/2312 VRB02KT P6SM SKC
     FM221600 19006KT P6SM SKC
     FM230000 18003KT P6SM BKN070 OVC100
     FM230900 14008KT P6SM BKN040 OVC060=



000
FTUS43 KDMX 221123
TAFFOD
TAF
KFOD 221123Z 2212/2312 VRB02KT P6SM SKC
     FM221600 19006KT P6SM SKC
     FM230000 18003KT P6SM BKN070 OVC100
     FM230900 14008KT P6SM BKN040 OVC060=



000
FTUS43 KDMX 221123
TAFALO
TAF
KALO 221123Z 2212/2312 VRB03KT P6SM SKC
     FM221900 19007KT P6SM SCT200
     FM230400 19004KT P6SM FEW070 BKN130
     FM231000 21005KT P6SM BKN070=



000
FTUS43 KDMX 221123
TAFDSM
TAF
KDSM 221123Z 2212/2312 29004KT P6SM SKC
     FM221700 21009KT P6SM SCT200
     FM230000 24005KT P6SM SCT070 BKN160
     FM231000 14006KT P6SM BKN060=



000
FTUS43 KDMX 221123
TAFOTM
TAF
KOTM 221123Z 2212/2312 29007KT P6SM SCT200
     FM221900 23008KT P6SM FEW070 BKN200
     FM230300 26004KT P6SM BKN090
     FM231000 12006KT P6SM BKN060=



000
FTUS43 KDMX 221123
TAFALO
TAF
KALO 221123Z 2212/2312 VRB03KT P6SM SKC
     FM221900 19007KT P6SM SCT200
     FM230400 19004KT P6SM FEW070 BKN130
     FM231000 21005KT P6SM BKN070=



000
FTUS43 KDMX 221123
TAFMCW
TAF
KMCW 221123Z 2212/2312 29004KT P6SM SKC
     FM222100 20007KT P6SM BKN200
     FM230400 23005KT P6SM FEW080 BKN120
     FM230900 21005KT P6SM BKN080=



000
FTUS43 KDMX 220520
TAFOTM
TAF
KOTM 220520Z 2206/2306 27007KT P6SM SKC
     FM222000 23008KT P6SM FEW070 BKN200
     FM230300 26004KT P6SM BKN090=



000
FTUS43 KDMX 220520
TAFOTM
TAF
KOTM 220520Z 2206/2306 27007KT P6SM SKC
     FM222000 23008KT P6SM FEW070 BKN200
     FM230300 26004KT P6SM BKN090=



000
FTUS43 KDMX 220520
TAFOTM
TAF
KOTM 220520Z 2206/2306 27007KT P6SM SKC
     FM222000 23008KT P6SM FEW070 BKN200
     FM230300 26004KT P6SM BKN090=



000
FTUS43 KDMX 220520
TAFOTM
TAF
KOTM 220520Z 2206/2306 27007KT P6SM SKC
     FM222000 23008KT P6SM FEW070 BKN200
     FM230300 26004KT P6SM BKN090=



000
FTUS43 KDMX 220520
TAFFOD
TAF
KFOD 220520Z 2206/2306 VRB02KT P6SM SKC
     FM221600 19006KT P6SM SKC
     FM230000 18003KT P6SM BKN070=



000
FTUS43 KDMX 220520
TAFFOD
TAF
KFOD 220520Z 2206/2306 VRB02KT P6SM SKC
     FM221600 19006KT P6SM SKC
     FM230000 18003KT P6SM BKN070=



000
FTUS43 KDMX 220520
TAFMCW
TAF
KMCW 220520Z 2206/2306 30005KT P6SM SKC
     FM221200 VRB03KT P6SM SKC
     FM222100 20007KT P6SM SKC
     FM230400 22005KT P6SM FEW070 BKN160=



000
FTUS43 KDMX 220520
TAFMCW
TAF
KMCW 220520Z 2206/2306 30005KT P6SM SKC
     FM221200 VRB03KT P6SM SKC
     FM222100 20007KT P6SM SKC
     FM230400 22005KT P6SM FEW070 BKN160=



000
FTUS43 KDMX 220520
TAFDSM
TAF
KDSM 220520Z 2206/2306 29004KT P6SM SKC
     FM221700 21009KT P6SM SKC
     FM230000 24005KT P6SM SCT070 BKN120=



000
FTUS43 KDMX 220520
TAFMCW
TAF
KMCW 220520Z 2206/2306 30005KT P6SM SKC
     FM221200 VRB03KT P6SM SKC
     FM222100 20007KT P6SM SKC
     FM230400 22005KT P6SM FEW070 BKN160=



000
FTUS43 KDMX 220520
TAFDSM
TAF
KDSM 220520Z 2206/2306 29004KT P6SM SKC
     FM221700 21009KT P6SM SKC
     FM230000 24005KT P6SM SCT070 BKN120=



000
FTUS43 KDMX 220520
TAFALO
TAF
KALO 220520Z 2206/2306 29004KT P6SM SKC
     FM221200 VRB03KT P6SM SKC
     FM221900 19007KT P6SM SKC
     FM230400 19004KT P6SM FEW070 BKN160=



000
FTUS43 KDMX 220520
TAFDSM
TAF
KDSM 220520Z 2206/2306 29004KT P6SM SKC
     FM221700 21009KT P6SM SKC
     FM230000 24005KT P6SM SCT070 BKN120=



000
FTUS43 KDMX 220520
TAFDSM
TAF
KDSM 220520Z 2206/2306 29004KT P6SM SKC
     FM221700 21009KT P6SM SKC
     FM230000 24005KT P6SM SCT070 BKN120=



000
FTUS43 KDMX 220520
TAFFOD
TAF
KFOD 220520Z 2206/2306 VRB02KT P6SM SKC
     FM221600 19006KT P6SM SKC
     FM230000 18003KT P6SM BKN070=



000
FTUS43 KDMX 220520
TAFALO
TAF
KALO 220520Z 2206/2306 29004KT P6SM SKC
     FM221200 VRB03KT P6SM SKC
     FM221900 19007KT P6SM SKC
     FM230400 19004KT P6SM FEW070 BKN160=



000
FTUS43 KDMX 220520
TAFALO
TAF
KALO 220520Z 2206/2306 29004KT P6SM SKC
     FM221200 VRB03KT P6SM SKC
     FM221900 19007KT P6SM SKC
     FM230400 19004KT P6SM FEW070 BKN160=



000
FTUS43 KDMX 220520
TAFALO
TAF
KALO 220520Z 2206/2306 29004KT P6SM SKC
     FM221200 VRB03KT P6SM SKC
     FM221900 19007KT P6SM SKC
     FM230400 19004KT P6SM FEW070 BKN160=



000
FTUS43 KDMX 220520
TAFMCW
TAF
KMCW 220520Z 2206/2306 30005KT P6SM SKC
     FM221200 VRB03KT P6SM SKC
     FM222100 20007KT P6SM SKC
     FM230400 22005KT P6SM FEW070 BKN160=



000
FTUS43 KDMX 220520
TAFFOD
TAF
KFOD 220520Z 2206/2306 VRB02KT P6SM SKC
     FM221600 19006KT P6SM SKC
     FM230000 18003KT P6SM BKN070=



000
FTUS43 KDMX 212332
TAFOTM
TAF
KOTM 212332Z 2200/2224 29010KT P6SM BKN100
     FM220200 28006KT P6SM SKC
     FM221700 19006KT P6SM SKC=



000
FTUS43 KDMX 212332
TAFALO
TAF
KALO 212332Z 2200/2224 30011G21KT P6SM SKC
     FM220130 31005KT P6SM SKC
     FM221200 VRB03KT P6SM SKC
     FM221800 19008KT P6SM SCT050=



000
FTUS43 KDMX 212332
TAFFOD
TAF
KFOD 212332Z 2200/2224 30008KT P6SM SCT100
     FM220200 VRB02KT P6SM SKC
     FM221700 22005KT P6SM SCT070=



000
FTUS43 KDMX 212332
TAFALO
TAF
KALO 212332Z 2200/2224 30011G21KT P6SM SKC
     FM220130 31005KT P6SM SKC
     FM221200 VRB03KT P6SM SKC
     FM221800 19008KT P6SM SCT050=



000
FTUS43 KDMX 212332
TAFMCW
TAF
KMCW 212332Z 2200/2224 32012G30KT P6SM SKC
     FM220130 32004KT P6SM SKC
     FM221800 18008KT P6SM FEW060=



000
FTUS43 KDMX 212332
TAFOTM
TAF
KOTM 212332Z 2200/2224 29010KT P6SM BKN100
     FM220200 28006KT P6SM SKC
     FM221700 19006KT P6SM SKC=



000
FTUS43 KDMX 212332
TAFDSM
TAF
KDSM 212332Z 2200/2224 29011G19KT P6SM BKN100
     FM220130 29005KT P6SM SKC
     FM221600 21008KT P6SM SKC=



000
FTUS43 KDMX 212332
TAFFOD
TAF
KFOD 212332Z 2200/2224 30008KT P6SM SCT100
     FM220200 VRB02KT P6SM SKC
     FM221700 22005KT P6SM SCT070=



000
FTUS43 KDMX 212332
TAFALO
TAF
KALO 212332Z 2200/2224 30011G21KT P6SM SKC
     FM220130 31005KT P6SM SKC
     FM221200 VRB03KT P6SM SKC
     FM221800 19008KT P6SM SCT050=



000
FTUS43 KDMX 212332
TAFFOD
TAF
KFOD 212332Z 2200/2224 30008KT P6SM SCT100
     FM220200 VRB02KT P6SM SKC
     FM221700 22005KT P6SM SCT070=



000
FTUS43 KDMX 212332
TAFMCW
TAF
KMCW 212332Z 2200/2224 32012G30KT P6SM SKC
     FM220130 32004KT P6SM SKC
     FM221800 18008KT P6SM FEW060=



000
FTUS43 KDMX 212332
TAFDSM
TAF
KDSM 212332Z 2200/2224 29011G19KT P6SM BKN100
     FM220130 29005KT P6SM SKC
     FM221600 21008KT P6SM SKC=



000
FTUS43 KDMX 212332
TAFOTM
TAF
KOTM 212332Z 2200/2224 29010KT P6SM BKN100
     FM220200 28006KT P6SM SKC
     FM221700 19006KT P6SM SKC=



000
FTUS43 KDMX 212332
TAFMCW
TAF
KMCW 212332Z 2200/2224 32012G30KT P6SM SKC
     FM220130 32004KT P6SM SKC
     FM221800 18008KT P6SM FEW060=



000
FTUS43 KDMX 211738
TAFDSM
TAF
KDSM 211738Z 2118/2218 29013G19KT P6SM SKC
     FM220000 28004KT P6SM SKC=



000
FTUS43 KDMX 211738
TAFOTM
TAF
KOTM 211738Z 2118/2218 29012KT P6SM SKC
     FM220000 27006KT P6SM SKC=



000
FTUS43 KDMX 211738
TAFALO
TAF
KALO 211738Z 2118/2218 29012G19KT P6SM SKC
     FM220100 30004KT P6SM SKC=



000
FTUS43 KDMX 211738
TAFFOD
TAF
KFOD 211738Z 2118/2218 30010G18KT P6SM SKC
     FM220200 34003KT P6SM SKC=



000
FTUS43 KDMX 211738
TAFMCW
TAF
KMCW 211738Z 2118/2218 30015G23KT P6SM SKC
     FM220100 30004KT P6SM SKC=



000
FTUS43 KDMX 211738
TAFMCW
TAF
KMCW 211738Z 2118/2218 30015G23KT P6SM SKC
     FM220100 30004KT P6SM SKC=



000
FTUS43 KDMX 211738
TAFDSM
TAF
KDSM 211738Z 2118/2218 29013G19KT P6SM SKC
     FM220000 28004KT P6SM SKC=



000
FTUS43 KDMX 211738
TAFALO
TAF
KALO 211738Z 2118/2218 29012G19KT P6SM SKC
     FM220100 30004KT P6SM SKC=



000
FTUS43 KDMX 211738
TAFFOD
TAF
KFOD 211738Z 2118/2218 30010G18KT P6SM SKC
     FM220200 34003KT P6SM SKC=



000
FTUS43 KDMX 211738
TAFOTM
TAF
KOTM 211738Z 2118/2218 29012KT P6SM SKC
     FM220000 27006KT P6SM SKC=



000
FTUS43 KDMX 211222 AAB
TAFOTM
TAF AMD
KOTM 211222Z 2112/2212 26004KT 3SM BR BKN002
     FM211300 24005KT 6SM BR SKC
     FM211400 28009KT P6SM SKC
     FM211700 29011G18KT P6SM FEW070
     FM220000 27006KT P6SM FEW080=



000
FTUS43 KDMX 211222 AAB
TAFOTM
TAF AMD
KOTM 211222Z 2112/2212 26004KT 3SM BR BKN002
     FM211300 24005KT 6SM BR SKC
     FM211400 28009KT P6SM SKC
     FM211700 29011G18KT P6SM FEW070
     FM220000 27006KT P6SM FEW080=



000
FTUS43 KDMX 211222 AAB
TAFOTM
TAF AMD
KOTM 211222Z 2112/2212 26004KT 3SM BR BKN002
     FM211300 24005KT 6SM BR SKC
     FM211400 28009KT P6SM SKC
     FM211700 29011G18KT P6SM FEW070
     FM220000 27006KT P6SM FEW080=



000
FTUS43 KDMX 211222 AAB
TAFOTM
TAF AMD
KOTM 211222Z 2112/2212 26004KT 3SM BR BKN002
     FM211300 24005KT 6SM BR SKC
     FM211400 28009KT P6SM SKC
     FM211700 29011G18KT P6SM FEW070
     FM220000 27006KT P6SM FEW080=



000
FTUS43 KDMX 211214 AAA
TAFOTM
TAF AMD
KOTM 211214Z 2112/2212 31004KT 1SM BR VV002
     FM211300 24005KT 5SM BR SKC
     FM211400 28009KT P6SM SKC
     FM211700 29011G18KT P6SM FEW070
     FM220000 27006KT P6SM FEW080=



000
FTUS43 KDMX 211214 AAA
TAFOTM
TAF AMD
KOTM 211214Z 2112/2212 31004KT 1SM BR VV002
     FM211300 24005KT 5SM BR SKC
     FM211400 28009KT P6SM SKC
     FM211700 29011G18KT P6SM FEW070
     FM220000 27006KT P6SM FEW080=



000
FTUS43 KDMX 211214 AAA
TAFOTM
TAF AMD
KOTM 211214Z 2112/2212 31004KT 1SM BR VV002
     FM211300 24005KT 5SM BR SKC
     FM211400 28009KT P6SM SKC
     FM211700 29011G18KT P6SM FEW070
     FM220000 27006KT P6SM FEW080=



000
FTUS43 KDMX 211214 AAA
TAFOTM
TAF AMD
KOTM 211214Z 2112/2212 31004KT 1SM BR VV002
     FM211300 24005KT 5SM BR SKC
     FM211400 28009KT P6SM SKC
     FM211700 29011G18KT P6SM FEW070
     FM220000 27006KT P6SM FEW080=



000
FTUS43 KDMX 211125
TAFALO
TAF
KALO 211125Z 2112/2212 25006KT P6SM SKC
     FM211400 28011KT P6SM FEW060
     FM211900 29016G26KT P6SM SCT080
     FM220000 31007KT P6SM SKC=



000
FTUS43 KDMX 211125
TAFMCW
TAF
KMCW 211125Z 2112/2212 26013G20KT P6SM SKC
     FM211500 29015KT P6SM FEW070
     FM211900 32018G26KT P6SM SCT080
     FM220000 32011G16KT P6SM FEW080
     FM220300 32004KT P6SM SKC=



000
FTUS43 KDMX 211125
TAFFOD
TAF
KFOD 211125Z 2112/2212 23006KT P6SM SKC
     FM211400 28010KT P6SM SKC
     FM211900 30012G20KT P6SM SCT080
     FM212300 30008G13KT P6SM FEW080
     FM220200 34003KT P6SM SKC=



000
FTUS43 KDMX 211125
TAFALO
TAF
KALO 211125Z 2112/2212 25006KT P6SM SKC
     FM211400 28011KT P6SM FEW060
     FM211900 29016G26KT P6SM SCT080
     FM220000 31007KT P6SM SKC=



000
FTUS43 KDMX 211125
TAFOTM
TAF
KOTM 211125Z 2112/2212 31004KT 1/4SM FG VV002
     FM211300 24005KT 5SM BR SKC
     FM211400 28009KT P6SM SKC
     FM211700 29011G18KT P6SM FEW070
     FM220000 27006KT P6SM FEW080=



000
FTUS43 KDMX 211125
TAFMCW
TAF
KMCW 211125Z 2112/2212 26013G20KT P6SM SKC
     FM211500 29015KT P6SM FEW070
     FM211900 32018G26KT P6SM SCT080
     FM220000 32011G16KT P6SM FEW080
     FM220300 32004KT P6SM SKC=



000
FTUS43 KDMX 211125
TAFFOD
TAF
KFOD 211125Z 2112/2212 23006KT P6SM SKC
     FM211400 28010KT P6SM SKC
     FM211900 30012G20KT P6SM SCT080
     FM212300 30008G13KT P6SM FEW080
     FM220200 34003KT P6SM SKC=



000
FTUS43 KDMX 211125
TAFDSM
TAF
KDSM 211125Z 2112/2212 27004KT P6SM FEW150
     FM211500 29013G18KT P6SM FEW060
     FM220000 29006KT P6SM FEW060=



000
FTUS43 KDMX 211125
TAFMCW
TAF
KMCW 211125Z 2112/2212 26013G20KT P6SM SKC
     FM211500 29015KT P6SM FEW070
     FM211900 32018G26KT P6SM SCT080
     FM220000 32011G16KT P6SM FEW080
     FM220300 32004KT P6SM SKC=



000
FTUS43 KDMX 211125
TAFDSM
TAF
KDSM 211125Z 2112/2212 27004KT P6SM FEW150
     FM211500 29013G18KT P6SM FEW060
     FM220000 29006KT P6SM FEW060=



000
FTUS43 KDMX 211125
TAFALO
TAF
KALO 211125Z 2112/2212 25006KT P6SM SKC
     FM211400 28011KT P6SM FEW060
     FM211900 29016G26KT P6SM SCT080
     FM220000 31007KT P6SM SKC=



000
FTUS43 KDMX 211125
TAFFOD
TAF
KFOD 211125Z 2112/2212 23006KT P6SM SKC
     FM211400 28010KT P6SM SKC
     FM211900 30012G20KT P6SM SCT080
     FM212300 30008G13KT P6SM FEW080
     FM220200 34003KT P6SM SKC=



000
FTUS43 KDMX 211125
TAFOTM
TAF
KOTM 211125Z 2112/2212 31004KT 1/4SM FG VV002
     FM211300 24005KT 5SM BR SKC
     FM211400 28009KT P6SM SKC
     FM211700 29011G18KT P6SM FEW070
     FM220000 27006KT P6SM FEW080=



000
FTUS43 KDMX 211125
TAFOTM
TAF
KOTM 211125Z 2112/2212 31004KT 1/4SM FG VV002
     FM211300 24005KT 5SM BR SKC
     FM211400 28009KT P6SM SKC
     FM211700 29011G18KT P6SM FEW070
     FM220000 27006KT P6SM FEW080=



000
FTUS43 KDMX 211125
TAFDSM
TAF
KDSM 211125Z 2112/2212 27004KT P6SM FEW150
     FM211500 29013G18KT P6SM FEW060
     FM220000 29006KT P6SM FEW060=



000
FTUS43 KDMX 211112 AAF
TAFOTM
TAF AMD
KOTM 211112Z 2111/2206 28004KT 1/4SM FG VV002
     FM211300 28006KT 5SM BR SCT001
     FM211400 29011KT P6SM FEW070
     FM220000 27006KT P6SM FEW070=



000
FTUS43 KDMX 211112 AAF
TAFOTM
TAF AMD
KOTM 211112Z 2111/2206 28004KT 1/4SM FG VV002
     FM211300 28006KT 5SM BR SCT001
     FM211400 29011KT P6SM FEW070
     FM220000 27006KT P6SM FEW070=



000
FTUS43 KDMX 211112 AAF
TAFOTM
TAF AMD
KOTM 211112Z 2111/2206 28004KT 1/4SM FG VV002
     FM211300 28006KT 5SM BR SCT001
     FM211400 29011KT P6SM FEW070
     FM220000 27006KT P6SM FEW070=



000
FTUS43 KDMX 211112 AAF
TAFOTM
TAF AMD
KOTM 211112Z 2111/2206 28004KT 1/4SM FG VV002
     FM211300 28006KT 5SM BR SCT001
     FM211400 29011KT P6SM FEW070
     FM220000 27006KT P6SM FEW070=



000
FTUS43 KDMX 211049 AAE
TAFOTM
TAF AMD
KOTM 211049Z 2111/2206 31004KT 1SM BR BKN002
     FM211300 28006KT 5SM BR SCT001
     FM211400 29011KT P6SM FEW070
     FM220000 27006KT P6SM FEW070=



000
FTUS43 KDMX 211049 AAE
TAFOTM
TAF AMD
KOTM 211049Z 2111/2206 31004KT 1SM BR BKN002
     FM211300 28006KT 5SM BR SCT001
     FM211400 29011KT P6SM FEW070
     FM220000 27006KT P6SM FEW070=



000
FTUS43 KDMX 211001 AAD
TAFOTM
TAF AMD
KOTM 211001Z 2110/2206 31004KT 1SM BR SCT035
     FM211300 28006KT 5SM BR SKC
     FM211400 29011KT P6SM FEW070
     FM220000 27006KT P6SM FEW070=



000
FTUS43 KDMX 211001 AAA
TAFALO
TAF AMD
KALO 211001Z 2110/2206 25004KT P6SM SKC
     FM211100 26004KT 6SM BR SKC
     FM211400 28011KT P6SM FEW060
     FM211900 29016G23KT P6SM SCT070
     FM220000 31007KT P6SM SKC=



000
FTUS43 KDMX 211001 AAA
TAFALO
TAF AMD
KALO 211001Z 2110/2206 25004KT P6SM SKC
     FM211100 26004KT 6SM BR SKC
     FM211400 28011KT P6SM FEW060
     FM211900 29016G23KT P6SM SCT070
     FM220000 31007KT P6SM SKC=



000
FTUS43 KDMX 211001 AAD
TAFOTM
TAF AMD
KOTM 211001Z 2110/2206 31004KT 1SM BR SCT035
     FM211300 28006KT 5SM BR SKC
     FM211400 29011KT P6SM FEW070
     FM220000 27006KT P6SM FEW070=



000
FTUS43 KDMX 211000 AAA
TAFFOD
TAF AMD
KFOD 211000Z 2110/2206 24006KT P6SM SKC
     FM211400 28010KT P6SM SKC
     FM211900 30012G20KT P6SM SCT080
     FM220000 VRB03KT P6SM SKC=



000
FTUS43 KDMX 211000 AAA
TAFFOD
TAF AMD
KFOD 211000Z 2110/2206 24006KT P6SM SKC
     FM211400 28010KT P6SM SKC
     FM211900 30012G20KT P6SM SCT080
     FM220000 VRB03KT P6SM SKC=



000
FTUS43 KDMX 210840 AAC
TAFOTM
TAF AMD
KOTM 210840Z 2109/2206 31004KT 2SM BR SCT035
     FM211300 28006KT 5SM BR SKC
     FM211400 29011KT P6SM FEW070
     FM220000 27006KT P6SM FEW070=



000
FTUS43 KDMX 210840 AAC
TAFOTM
TAF AMD
KOTM 210840Z 2109/2206 31004KT 2SM BR SCT035
     FM211300 28006KT 5SM BR SKC
     FM211400 29011KT P6SM FEW070
     FM220000 27006KT P6SM FEW070=



000
FTUS43 KDMX 210815 AAB
TAFOTM
TAF AMD
KOTM 210815Z 2108/2206 31004KT 6SM BR SCT035
     FM210900 28006KT 5SM BR SKC
     FM211400 29011KT P6SM FEW070
     FM220000 27006KT P6SM FEW070=



000
FTUS43 KDMX 210814 AAA
TAFDSM
TAF AMD
KDSM 210814Z 2108/2206 27004KT 6SM BR FEW070
     FM211500 29013KT P6SM FEW060
     FM220000 29006KT P6SM FEW060=



000
FTUS43 KDMX 210814 AAA
TAFDSM
TAF AMD
KDSM 210814Z 2108/2206 27004KT 6SM BR FEW070
     FM211500 29013KT P6SM FEW060
     FM220000 29006KT P6SM FEW060=



000
FTUS43 KDMX 210814 AAA
TAFMCW
TAF AMD
KMCW 210814Z 2108/2206 25011G20KT P6SM SKC
     FM211500 29015KT P6SM FEW070
     FM211900 32018G25KT P6SM SCT070
     FM220000 32008KT P6SM SKC=



000
FTUS43 KDMX 210814 AAA
TAFMCW
TAF AMD
KMCW 210814Z 2108/2206 25011G20KT P6SM SKC
     FM211500 29015KT P6SM FEW070
     FM211900 32018G25KT P6SM SCT070
     FM220000 32008KT P6SM SKC=



000
FTUS43 KDMX 210658 AAA
TAFOTM
TAF AMD
KOTM 210658Z 2107/2206 31004KT P6SM BKN015
     FM210800 31004KT P6SM SCT035
     FM210900 28006KT 5SM BR SKC
     FM211400 29011KT P6SM FEW070
     FM220000 27006KT P6SM FEW070=



000
FTUS43 KDMX 210658 AAA
TAFOTM
TAF AMD
KOTM 210658Z 2107/2206 31004KT P6SM BKN015
     FM210800 31004KT P6SM SCT035
     FM210900 28006KT 5SM BR SKC
     FM211400 29011KT P6SM FEW070
     FM220000 27006KT P6SM FEW070=



000
FTUS43 KDMX 210530
TAFFOD
TAF
KFOD 210530Z 2106/2206 24003KT P6SM SKC
     FM211000 24003KT 5SM BR SKC
     FM211400 28010KT P6SM SKC
     FM211900 30012G20KT P6SM SCT080
     FM220000 VRB03KT P6SM SKC=



000
FTUS43 KDMX 210530
TAFOTM
TAF
KOTM 210530Z 2106/2206 31004KT P6SM BKN080
     FM210900 28006KT 5SM BR SKC
     FM211400 29011KT P6SM FEW070
     FM220000 27006KT P6SM FEW070=



000
FTUS43 KDMX 210530
TAFDSM
TAF
KDSM 210530Z 2106/2206 27004KT P6SM SKC
     FM211500 29013KT P6SM FEW060
     FM220000 29006KT P6SM FEW060=



000
FTUS43 KDMX 210530
TAFMCW
TAF
KMCW 210530Z 2106/2206 25009KT P6SM SKC
     FM211500 29015KT P6SM FEW070
     FM211900 32018G25KT P6SM SCT070
     FM220000 32008KT P6SM SKC=



000
FTUS43 KDMX 210530
TAFFOD
TAF
KFOD 210530Z 2106/2206 24003KT P6SM SKC
     FM211000 24003KT 5SM BR SKC
     FM211400 28010KT P6SM SKC
     FM211900 30012G20KT P6SM SCT080
     FM220000 VRB03KT P6SM SKC=



000
FTUS43 KDMX 210530
TAFALO
TAF
KALO 210530Z 2106/2206 25004KT P6SM SKC
     FM211000 26004KT 5SM BR SKC
     FM211400 28011KT P6SM FEW060
     FM211900 29016G23KT P6SM SCT070
     FM220000 31007KT P6SM SKC=



000
FTUS43 KDMX 210530
TAFMCW
TAF
KMCW 210530Z 2106/2206 25009KT P6SM SKC
     FM211500 29015KT P6SM FEW070
     FM211900 32018G25KT P6SM SCT070
     FM220000 32008KT P6SM SKC=



000
FTUS43 KDMX 210239 AAA
TAFDSM
TAF AMD
KDSM 210239Z 2103/2124 VRB03KT P6SM SCT015 BKN025 OVC060
     FM210400 27005KT P6SM SKC
     FM211500 29013KT P6SM SCT060=



000
FTUS43 KDMX 210239 AAA
TAFDSM
TAF AMD
KDSM 210239Z 2103/2124 VRB03KT P6SM SCT015 BKN025 OVC060
     FM210400 27005KT P6SM SKC
     FM211500 29013KT P6SM SCT060=



000
FTUS43 KDMX 210239 AAA
TAFDSM
TAF AMD
KDSM 210239Z 2103/2124 VRB03KT P6SM SCT015 BKN025 OVC060
     FM210400 27005KT P6SM SKC
     FM211500 29013KT P6SM SCT060=



000
FTUS43 KDMX 210206 AAA
TAFOTM
TAF AMD
KOTM 210206Z 2102/2124 VRB04KT P6SM BKN025
     FM210400 VRB04KT P6SM SCT025 BKN050
     FM210700 28005KT P6SM SKC
     FM211400 29010KT P6SM SCT050=



000
FTUS43 KDMX 210206 AAA
TAFOTM
TAF AMD
KOTM 210206Z 2102/2124 VRB04KT P6SM BKN025
     FM210400 VRB04KT P6SM SCT025 BKN050
     FM210700 28005KT P6SM SKC
     FM211400 29010KT P6SM SCT050=



000
FTUS43 KDMX 202339
TAFDSM
TAF
KDSM 202339Z 2100/2124 07005KT P6SM -RA SCT015 BKN025
     FM210200 VRB03KT P6SM SCT025 BKN050
     FM210500 27005KT P6SM SKC
     FM211500 29013KT P6SM SCT060=



000
FTUS43 KDMX 202339
TAFMCW
TAF
KMCW 202339Z 2100/2124 33005KT P6SM BKN090
     FM210300 25006KT P6SM SKC
     FM211400 30011KT P6SM SCT060
     FM211900 31016G23KT P6SM SCT070=



000
FTUS43 KDMX 202339
TAFFOD
TAF
KFOD 202339Z 2100/2124 VRB04KT P6SM BKN080
     FM210300 24003KT P6SM SKC
     FM211400 29011G17KT P6SM SCT060=



000
FTUS43 KDMX 202339
TAFOTM
TAF
KOTM 202339Z 2100/2124 04064KT P6SM -RA SCT015 BKN025
     FM210400 VRB04KT P6SM SCT025 BKN050
     FM210700 28005KT P6SM SKC
     FM211400 29010KT P6SM SCT050=



000
FTUS43 KDMX 202339
TAFALO
TAF
KALO 202339Z 2100/2124 VRB03KT P6SM BKN090
      TEMPO 2100/2102 -RA
     FM210400 25004KT P6SM SKC
     FM211300 28007KT P6SM FEW060
     FM211900 30014G21KT P6SM SCT070=



000
FTUS43 KDMX 202339
TAFALO
TAF
KALO 202339Z 2100/2124 VRB03KT P6SM BKN090
      TEMPO 2100/2102 -RA
     FM210400 25004KT P6SM SKC
     FM211300 28007KT P6SM FEW060
     FM211900 30014G21KT P6SM SCT070=



000
FTUS43 KDMX 202339
TAFOTM
TAF
KOTM 202339Z 2100/2124 04064KT P6SM -RA SCT015 BKN025
     FM210400 VRB04KT P6SM SCT025 BKN050
     FM210700 28005KT P6SM SKC
     FM211400 29010KT P6SM SCT050=



000
FTUS43 KDMX 202339
TAFMCW
TAF
KMCW 202339Z 2100/2124 33005KT P6SM BKN090
     FM210300 25006KT P6SM SKC
     FM211400 30011KT P6SM SCT060
     FM211900 31016G23KT P6SM SCT070=



000
FTUS43 KDMX 202339
TAFFOD
TAF
KFOD 202339Z 2100/2124 VRB04KT P6SM BKN080
     FM210300 24003KT P6SM SKC
     FM211400 29011G17KT P6SM SCT060=



000
FTUS43 KDMX 202339
TAFDSM
TAF
KDSM 202339Z 2100/2124 07005KT P6SM -RA SCT015 BKN025
     FM210200 VRB03KT P6SM SCT025 BKN050
     FM210500 27005KT P6SM SKC
     FM211500 29013KT P6SM SCT060=



000
FTUS43 KDMX 202339
TAFMCW
TAF
KMCW 202339Z 2100/2124 33005KT P6SM BKN090
     FM210300 25006KT P6SM SKC
     FM211400 30011KT P6SM SCT060
     FM211900 31016G23KT P6SM SCT070=



000
FTUS43 KDMX 202339
TAFOTM
TAF
KOTM 202339Z 2100/2124 04064KT P6SM -RA SCT015 BKN025
     FM210400 VRB04KT P6SM SCT025 BKN050
     FM210700 28005KT P6SM SKC
     FM211400 29010KT P6SM SCT050=



000
FTUS43 KDMX 202339
TAFALO
TAF
KALO 202339Z 2100/2124 VRB03KT P6SM BKN090
      TEMPO 2100/2102 -RA
     FM210400 25004KT P6SM SKC
     FM211300 28007KT P6SM FEW060
     FM211900 30014G21KT P6SM SCT070=



000
FTUS43 KDMX 202339
TAFDSM
TAF
KDSM 202339Z 2100/2124 07005KT P6SM -RA SCT015 BKN025
     FM210200 VRB03KT P6SM SCT025 BKN050
     FM210500 27005KT P6SM SKC
     FM211500 29013KT P6SM SCT060=



000
FTUS43 KDMX 202339
TAFFOD
TAF
KFOD 202339Z 2100/2124 VRB04KT P6SM BKN080
     FM210300 24003KT P6SM SKC
     FM211400 29011G17KT P6SM SCT060=



000
FTUS43 KDMX 202339
TAFOTM
TAF
KOTM 202339Z 2100/2124 04064KT P6SM -RA SCT015 BKN025
     FM210400 VRB04KT P6SM SCT025 BKN050
     FM210700 28005KT P6SM SKC
     FM211400 29010KT P6SM SCT050=



000
FTUS43 KDMX 202339
TAFDSM
TAF
KDSM 202339Z 2100/2124 07005KT P6SM -RA SCT015 BKN025
     FM210200 VRB03KT P6SM SCT025 BKN050
     FM210500 27005KT P6SM SKC
     FM211500 29013KT P6SM SCT060=



000
FTUS43 KDMX 202339
TAFALO
TAF
KALO 202339Z 2100/2124 VRB03KT P6SM BKN090
      TEMPO 2100/2102 -RA
     FM210400 25004KT P6SM SKC
     FM211300 28007KT P6SM FEW060
     FM211900 30014G21KT P6SM SCT070=



000
FTUS43 KDMX 202339
TAFMCW
TAF
KMCW 202339Z 2100/2124 33005KT P6SM BKN090
     FM210300 25006KT P6SM SKC
     FM211400 30011KT P6SM SCT060
     FM211900 31016G23KT P6SM SCT070=



000
FTUS43 KDMX 202339
TAFFOD
TAF
KFOD 202339Z 2100/2124 VRB04KT P6SM BKN080
     FM210300 24003KT P6SM SKC
     FM211400 29011G17KT P6SM SCT060=



000
FTUS43 KDMX 202139 AAA
TAFOTM
TAF AMD
KOTM 202139Z 2022/2118 08010KT P6SM BKN025 OVC040
      TEMPO 2022/2102 -RA
     FM210600 VRB05KT P6SM SCT025 BKN060
     FM211500 29010KT P6SM FEW070=



000
FTUS43 KDMX 202139 AAA
TAFOTM
TAF AMD
KOTM 202139Z 2022/2118 08010KT P6SM BKN025 OVC040
      TEMPO 2022/2102 -RA
     FM210600 VRB05KT P6SM SCT025 BKN060
     FM211500 29010KT P6SM FEW070=



000
FTUS43 KDMX 202138 AAB
TAFDSM
TAF AMD
KDSM 202138Z 2022/2118 06006KT P6SM BKN025 OVC035
      TEMPO 2022/2101 -RA
     FM210200 VRB04KT P6SM SCT050
     FM211500 32009G15KT P6SM SCT050 BKN090=



000
FTUS43 KDMX 202138 AAB
TAFDSM
TAF AMD
KDSM 202138Z 2022/2118 06006KT P6SM BKN025 OVC035
      TEMPO 2022/2101 -RA
     FM210200 VRB04KT P6SM SCT050
     FM211500 32009G15KT P6SM SCT050 BKN090=



000
FTUS43 KDMX 202138 AAB
TAFDSM
TAF AMD
KDSM 202138Z 2022/2118 06006KT P6SM BKN025 OVC035
      TEMPO 2022/2101 -RA
     FM210200 VRB04KT P6SM SCT050
     FM211500 32009G15KT P6SM SCT050 BKN090=



000
FTUS43 KDMX 202137 AAA
TAFALO
TAF AMD
KALO 202137Z 2022/2118 05005KT P6SM BKN040
      TEMPO 2022/2101 -RA
     FM210400 25004KT P6SM SCT080
     FM211500 30010G16KT P6SM FEW070=



000
FTUS43 KDMX 202137 AAA
TAFALO
TAF AMD
KALO 202137Z 2022/2118 05005KT P6SM BKN040
      TEMPO 2022/2101 -RA
     FM210400 25004KT P6SM SCT080
     FM211500 30010G16KT P6SM FEW070=



000
FTUS43 KDMX 202137 AAA
TAFALO
TAF AMD
KALO 202137Z 2022/2118 05005KT P6SM BKN040
      TEMPO 2022/2101 -RA
     FM210400 25004KT P6SM SCT080
     FM211500 30010G16KT P6SM FEW070=



000
FTUS43 KDMX 202136 AAA
TAFFOD
TAF AMD
KFOD 202136Z 2022/2118 04005KT P6SM OVC040
      TEMPO 2022/2024 -RA
     FM210200 22005KT P6SM FEW060
     FM211500 31009G16KT P6SM FEW070=



000
FTUS43 KDMX 202136 AAA
TAFMCW
TAF AMD
KMCW 202136Z 2022/2118 VRB05KT P6SM BKN040 OVC060
      TEMPO 2022/2024 -RA
     FM210300 22005KT P6SM FEW060
     FM211500 32010G19KT P6SM FEW070=



000
FTUS43 KDMX 202136 AAA
TAFFOD
TAF AMD
KFOD 202136Z 2022/2118 04005KT P6SM OVC040
      TEMPO 2022/2024 -RA
     FM210200 22005KT P6SM FEW060
     FM211500 31009G16KT P6SM FEW070=



000
FTUS43 KDMX 202136 AAA
TAFMCW
TAF AMD
KMCW 202136Z 2022/2118 VRB05KT P6SM BKN040 OVC060
      TEMPO 2022/2024 -RA
     FM210300 22005KT P6SM FEW060
     FM211500 32010G19KT P6SM FEW070=



000
FTUS43 KDMX 202136 AAA
TAFMCW
TAF AMD
KMCW 202136Z 2022/2118 VRB05KT P6SM BKN040 OVC060
      TEMPO 2022/2024 -RA
     FM210300 22005KT P6SM FEW060
     FM211500 32010G19KT P6SM FEW070=



000
FTUS43 KDMX 202136 AAA
TAFMCW
TAF AMD
KMCW 202136Z 2022/2118 VRB05KT P6SM BKN040 OVC060
      TEMPO 2022/2024 -RA
     FM210300 22005KT P6SM FEW060
     FM211500 32010G19KT P6SM FEW070=



000
FTUS43 KDMX 201817 AAA
TAFDSM
TAF AMD
KDSM 201817Z 2018/2118 06006KT P6SM BKN025 OVC035
     FM210200 VRB04KT P6SM SCT050
     FM211500 32009G15KT P6SM SCT050 BKN090=



000
FTUS43 KDMX 201817 AAA
TAFDSM
TAF AMD
KDSM 201817Z 2018/2118 06006KT P6SM BKN025 OVC035
     FM210200 VRB04KT P6SM SCT050
     FM211500 32009G15KT P6SM SCT050 BKN090=



000
FTUS43 KDMX 201817 AAA
TAFDSM
TAF AMD
KDSM 201817Z 2018/2118 06006KT P6SM BKN025 OVC035
     FM210200 VRB04KT P6SM SCT050
     FM211500 32009G15KT P6SM SCT050 BKN090=



000
FTUS43 KDMX 201817 AAA
TAFDSM
TAF AMD
KDSM 201817Z 2018/2118 06006KT P6SM BKN025 OVC035
     FM210200 VRB04KT P6SM SCT050
     FM211500 32009G15KT P6SM SCT050 BKN090=



000
FTUS43 KDMX 201729
TAFOTM
TAF
KOTM 201729Z 2018/2118 08010KT P6SM -SHRA SCT025 OVC060
      TEMPO 2018/2020 BKN025
     FM210600 VRB05KT P6SM SCT025 BKN060
     FM211500 29010KT P6SM FEW070=



000
FTUS43 KDMX 201729
TAFMCW
TAF
KMCW 201729Z 2018/2118 VRB05KT P6SM BKN040 OVC060
     FM210300 22005KT P6SM FEW060
     FM211500 32010G19KT P6SM FEW070=



000
FTUS43 KDMX 201729
TAFFOD
TAF
KFOD 201729Z 2018/2118 04005KT P6SM OVC040
      TEMPO 2018/2020 BKN025
     FM210200 22005KT P6SM FEW060
     FM211500 31009G16KT P6SM FEW070=



000
FTUS43 KDMX 201729
TAFALO
TAF
KALO 201729Z 2018/2118 04005KT P6SM -SHRA OVC025
     FM202200 05005KT P6SM BKN040
     FM210400 25004KT P6SM SCT080
     FM211500 30010G16KT P6SM FEW070=



000
FTUS43 KDMX 201729
TAFDSM
TAF
KDSM 201729Z 2018/2118 06006KT P6SM -DZ BKN015 OVC030
     FM210200 VRB04KT P6SM SCT050
     FM211500 32009G15KT P6SM SCT050 BKN090=



000
FTUS43 KDMX 201729
TAFALO
TAF
KALO 201729Z 2018/2118 04005KT P6SM -SHRA OVC025
     FM202200 05005KT P6SM BKN040
     FM210400 25004KT P6SM SCT080
     FM211500 30010G16KT P6SM FEW070=



000
FTUS43 KDMX 201729
TAFFOD
TAF
KFOD 201729Z 2018/2118 04005KT P6SM OVC040
      TEMPO 2018/2020 BKN025
     FM210200 22005KT P6SM FEW060
     FM211500 31009G16KT P6SM FEW070=



000
FTUS43 KDMX 201729
TAFMCW
TAF
KMCW 201729Z 2018/2118 VRB05KT P6SM BKN040 OVC060
     FM210300 22005KT P6SM FEW060
     FM211500 32010G19KT P6SM FEW070=



000
FTUS43 KDMX 201729
TAFDSM
TAF
KDSM 201729Z 2018/2118 06006KT P6SM -DZ BKN015 OVC030
     FM210200 VRB04KT P6SM SCT050
     FM211500 32009G15KT P6SM SCT050 BKN090=



000
FTUS43 KDMX 201729
TAFFOD
TAF
KFOD 201729Z 2018/2118 04005KT P6SM OVC040
      TEMPO 2018/2020 BKN025
     FM210200 22005KT P6SM FEW060
     FM211500 31009G16KT P6SM FEW070=



000
FTUS43 KDMX 201729
TAFMCW
TAF
KMCW 201729Z 2018/2118 VRB05KT P6SM BKN040 OVC060
     FM210300 22005KT P6SM FEW060
     FM211500 32010G19KT P6SM FEW070=



000
FTUS43 KDMX 201729
TAFOTM
TAF
KOTM 201729Z 2018/2118 08010KT P6SM -SHRA SCT025 OVC060
      TEMPO 2018/2020 BKN025
     FM210600 VRB05KT P6SM SCT025 BKN060
     FM211500 29010KT P6SM FEW070=



000
FTUS43 KDMX 201729
TAFALO
TAF
KALO 201729Z 2018/2118 04005KT P6SM -SHRA OVC025
     FM202200 05005KT P6SM BKN040
     FM210400 25004KT P6SM SCT080
     FM211500 30010G16KT P6SM FEW070=



000
FTUS43 KDMX 201729
TAFDSM
TAF
KDSM 201729Z 2018/2118 06006KT P6SM -DZ BKN015 OVC030
     FM210200 VRB04KT P6SM SCT050
     FM211500 32009G15KT P6SM SCT050 BKN090=



000
FTUS43 KDMX 201729
TAFOTM
TAF
KOTM 201729Z 2018/2118 08010KT P6SM -SHRA SCT025 OVC060
      TEMPO 2018/2020 BKN025
     FM210600 VRB05KT P6SM SCT025 BKN060
     FM211500 29010KT P6SM FEW070=



000
FTUS43 KDMX 201729
TAFMCW
TAF
KMCW 201729Z 2018/2118 VRB05KT P6SM BKN040 OVC060
     FM210300 22005KT P6SM FEW060
     FM211500 32010G19KT P6SM FEW070=



000
FTUS43 KDMX 201729
TAFALO
TAF
KALO 201729Z 2018/2118 04005KT P6SM -SHRA OVC025
     FM202200 05005KT P6SM BKN040
     FM210400 25004KT P6SM SCT080
     FM211500 30010G16KT P6SM FEW070=



000
FTUS43 KDMX 201729
TAFFOD
TAF
KFOD 201729Z 2018/2118 04005KT P6SM OVC040
      TEMPO 2018/2020 BKN025
     FM210200 22005KT P6SM FEW060
     FM211500 31009G16KT P6SM FEW070=



000
FTUS43 KDMX 201729
TAFOTM
TAF
KOTM 201729Z 2018/2118 08010KT P6SM -SHRA SCT025 OVC060
      TEMPO 2018/2020 BKN025
     FM210600 VRB05KT P6SM SCT025 BKN060
     FM211500 29010KT P6SM FEW070=



000
FTUS43 KDMX 201729
TAFDSM
TAF
KDSM 201729Z 2018/2118 06006KT P6SM -DZ BKN015 OVC030
     FM210200 VRB04KT P6SM SCT050
     FM211500 32009G15KT P6SM SCT050 BKN090=



000
FTUS43 KDMX 201627 AAA
TAFMCW
TAF AMD
KMCW 201627Z 2016/2112 VRB05KT P6SM -SHRA BKN040 OVC060
     FM202200 VRB03KT P6SM SCT020 BKN050
     FM210100 27005KT P6SM BKN040 OVC070
     FM210400 VRB03KT P6SM SCT080 BKN150=



000
FTUS43 KDMX 201627 AAA
TAFMCW
TAF AMD
KMCW 201627Z 2016/2112 VRB05KT P6SM -SHRA BKN040 OVC060
     FM202200 VRB03KT P6SM SCT020 BKN050
     FM210100 27005KT P6SM BKN040 OVC070
     FM210400 VRB03KT P6SM SCT080 BKN150=



000
FTUS43 KDMX 201627 AAA
TAFMCW
TAF AMD
KMCW 201627Z 2016/2112 VRB05KT P6SM -SHRA BKN040 OVC060
     FM202200 VRB03KT P6SM SCT020 BKN050
     FM210100 27005KT P6SM BKN040 OVC070
     FM210400 VRB03KT P6SM SCT080 BKN150=



000
FTUS43 KDMX 201627 AAA
TAFMCW
TAF AMD
KMCW 201627Z 2016/2112 VRB05KT P6SM -SHRA BKN040 OVC060
     FM202200 VRB03KT P6SM SCT020 BKN050
     FM210100 27005KT P6SM BKN040 OVC070
     FM210400 VRB03KT P6SM SCT080 BKN150=



000
FTUS43 KDMX 201626 AAA
TAFOTM
TAF AMD
KOTM 201626Z 2016/2112 08010KT P6SM -SHRA SCT025 OVC060
     FM210000 03007KT P6SM SCT025 BKN045
     FM210300 VRB03KT P6SM BKN060
     FM210700 28004KT P6SM SCT050 BKN090=



000
FTUS43 KDMX 201624 AAA
TAFDSM
TAF AMD
KDSM 201624Z 2016/2112 06006KT P6SM -DZ BKN015 OVC030
     FM210000 VRB04KT P6SM SCT020 BKN035
     FM210600 25004KT P6SM SCT050 BKN090=



000
FTUS43 KDMX 201624 AAA
TAFDSM
TAF AMD
KDSM 201624Z 2016/2112 06006KT P6SM -DZ BKN015 OVC030
     FM210000 VRB04KT P6SM SCT020 BKN035
     FM210600 25004KT P6SM SCT050 BKN090=



000
FTUS43 KDMX 201624 AAA
TAFDSM
TAF AMD
KDSM 201624Z 2016/2112 06006KT P6SM -DZ BKN015 OVC030
     FM210000 VRB04KT P6SM SCT020 BKN035
     FM210600 25004KT P6SM SCT050 BKN090=



000
FTUS43 KDMX 201624 AAA
TAFDSM
TAF AMD
KDSM 201624Z 2016/2112 06006KT P6SM -DZ BKN015 OVC030
     FM210000 VRB04KT P6SM SCT020 BKN035
     FM210600 25004KT P6SM SCT050 BKN090=



000
FTUS43 KDMX 201600 AAA
TAFALO
TAF AMD
KALO 201600Z 2016/2112 07005KT 5SM -RA OVC025
     FM202100 05005KT P6SM -DZ BKN025
     FM210200 25004KT P6SM SCT030 BKN050
     FM210500 25004KT P6SM SCT050 BKN090=



000
FTUS43 KDMX 201600 AAA
TAFALO
TAF AMD
KALO 201600Z 2016/2112 07005KT 5SM -RA OVC025
     FM202100 05005KT P6SM -DZ BKN025
     FM210200 25004KT P6SM SCT030 BKN050
     FM210500 25004KT P6SM SCT050 BKN090=



000
FTUS43 KDMX 201413 AAA
TAFOTM
TAF AMD
KOTM 201413Z 2014/2112 08010KT P6SM -RA OVC060
     FM201600 07008KT 6SM -RA BR SCT007 OVC018
     FM202000 05007KT P6SM -DZ OVC025
     FM210000 03007KT P6SM SCT025 BKN045
     FM210300 VRB03KT P6SM BKN060
     FM210700 28004KT P6SM SCT050 BKN090=



000
FTUS43 KDMX 201413 AAA
TAFOTM
TAF AMD
KOTM 201413Z 2014/2112 08010KT P6SM -RA OVC060
     FM201600 07008KT 6SM -RA BR SCT007 OVC018
     FM202000 05007KT P6SM -DZ OVC025
     FM210000 03007KT P6SM SCT025 BKN045
     FM210300 VRB03KT P6SM BKN060
     FM210700 28004KT P6SM SCT050 BKN090=



000
FTUS43 KDMX 201413 AAA
TAFOTM
TAF AMD
KOTM 201413Z 2014/2112 08010KT P6SM -RA OVC060
     FM201600 07008KT 6SM -RA BR SCT007 OVC018
     FM202000 05007KT P6SM -DZ OVC025
     FM210000 03007KT P6SM SCT025 BKN045
     FM210300 VRB03KT P6SM BKN060
     FM210700 28004KT P6SM SCT050 BKN090=



000
FTUS43 KDMX 201413 AAA
TAFOTM
TAF AMD
KOTM 201413Z 2014/2112 08010KT P6SM -RA OVC060
     FM201600 07008KT 6SM -RA BR SCT007 OVC018
     FM202000 05007KT P6SM -DZ OVC025
     FM210000 03007KT P6SM SCT025 BKN045
     FM210300 VRB03KT P6SM BKN060
     FM210700 28004KT P6SM SCT050 BKN090=



000
FTUS43 KDMX 201140
TAFOTM
TAF
KOTM 201140Z 2012/2112 06007KT P6SM -RA OVC070
     FM201600 07008KT 6SM -RA BR SCT007 OVC018
     FM202000 05007KT P6SM -DZ OVC025
     FM210000 03007KT P6SM SCT025 BKN045
     FM210300 VRB03KT P6SM BKN060
     FM210700 28004KT P6SM SCT050 BKN090=



000
FTUS43 KDMX 201140
TAFFOD
TAF
KFOD 201140Z 2012/2112 06004KT P6SM -RA SCT050 OVC070
     FM201600 04005KT P6SM -DZ BKN020
     FM202200 04005KT P6SM BKN040
     FM210100 VRB03KT P6SM BKN070
     FM210500 VRB03KT P6SM SCT080 BKN150=



000
FTUS43 KDMX 201140
TAFALO
TAF
KALO 201140Z 2012/2112 07004KT P6SM -RA OVC090
     FM201600 07005KT P6SM -RA OVC040
     FM202100 05005KT P6SM -DZ BKN025
     FM210200 25004KT P6SM SCT030 BKN050
     FM210500 25004KT P6SM SCT050 BKN090=



000
FTUS43 KDMX 201140
TAFMCW
TAF
KMCW 201140Z 2012/2112 VRB03KT P6SM OVC080
     FM201300 VRB03KT P6SM BKN045
     FM201500 VRB03KT P6SM -RA BKN025
     FM202200 VRB03KT P6SM SCT020 BKN050
     FM210100 27005KT P6SM BKN040 OVC070
     FM210400 VRB03KT P6SM SCT080 BKN150=



000
FTUS43 KDMX 201140
TAFDSM
TAF
KDSM 201140Z 2012/2112 09007KT P6SM -RA OVC070
     FM201400 06006KT 6SM -RA BR SCT025 OVC045
     FM201900 04007KT P6SM -DZ OVC020
     FM210000 VRB04KT P6SM SCT020 BKN035
     FM210600 25004KT P6SM SCT050 BKN090=



000
FTUS43 KDMX 201140
TAFALO
TAF
KALO 201140Z 2012/2112 07004KT P6SM -RA OVC090
     FM201600 07005KT P6SM -RA OVC040
     FM202100 05005KT P6SM -DZ BKN025
     FM210200 25004KT P6SM SCT030 BKN050
     FM210500 25004KT P6SM SCT050 BKN090=



000
FTUS43 KDMX 201140
TAFOTM
TAF
KOTM 201140Z 2012/2112 06007KT P6SM -RA OVC070
     FM201600 07008KT 6SM -RA BR SCT007 OVC018
     FM202000 05007KT P6SM -DZ OVC025
     FM210000 03007KT P6SM SCT025 BKN045
     FM210300 VRB03KT P6SM BKN060
     FM210700 28004KT P6SM SCT050 BKN090=



000
FTUS43 KDMX 201140
TAFFOD
TAF
KFOD 201140Z 2012/2112 06004KT P6SM -RA SCT050 OVC070
     FM201600 04005KT P6SM -DZ BKN020
     FM202200 04005KT P6SM BKN040
     FM210100 VRB03KT P6SM BKN070
     FM210500 VRB03KT P6SM SCT080 BKN150=



000
FTUS43 KDMX 201140
TAFMCW
TAF
KMCW 201140Z 2012/2112 VRB03KT P6SM OVC080
     FM201300 VRB03KT P6SM BKN045
     FM201500 VRB03KT P6SM -RA BKN025
     FM202200 VRB03KT P6SM SCT020 BKN050
     FM210100 27005KT P6SM BKN040 OVC070
     FM210400 VRB03KT P6SM SCT080 BKN150=



000
FTUS43 KDMX 201140
TAFDSM
TAF
KDSM 201140Z 2012/2112 09007KT P6SM -RA OVC070
     FM201400 06006KT 6SM -RA BR SCT025 OVC045
     FM201900 04007KT P6SM -DZ OVC020
     FM210000 VRB04KT P6SM SCT020 BKN035
     FM210600 25004KT P6SM SCT050 BKN090=



000
FTUS43 KDMX 201140
TAFALO
TAF
KALO 201140Z 2012/2112 07004KT P6SM -RA OVC090
     FM201600 07005KT P6SM -RA OVC040
     FM202100 05005KT P6SM -DZ BKN025
     FM210200 25004KT P6SM SCT030 BKN050
     FM210500 25004KT P6SM SCT050 BKN090=



000
FTUS43 KDMX 201140
TAFOTM
TAF
KOTM 201140Z 2012/2112 06007KT P6SM -RA OVC070
     FM201600 07008KT 6SM -RA BR SCT007 OVC018
     FM202000 05007KT P6SM -DZ OVC025
     FM210000 03007KT P6SM SCT025 BKN045
     FM210300 VRB03KT P6SM BKN060
     FM210700 28004KT P6SM SCT050 BKN090=



000
FTUS43 KDMX 201140
TAFMCW
TAF
KMCW 201140Z 2012/2112 VRB03KT P6SM OVC080
     FM201300 VRB03KT P6SM BKN045
     FM201500 VRB03KT P6SM -RA BKN025
     FM202200 VRB03KT P6SM SCT020 BKN050
     FM210100 27005KT P6SM BKN040 OVC070
     FM210400 VRB03KT P6SM SCT080 BKN150=



000
FTUS43 KDMX 201140
TAFFOD
TAF
KFOD 201140Z 2012/2112 06004KT P6SM -RA SCT050 OVC070
     FM201600 04005KT P6SM -DZ BKN020
     FM202200 04005KT P6SM BKN040
     FM210100 VRB03KT P6SM BKN070
     FM210500 VRB03KT P6SM SCT080 BKN150=



000
FTUS43 KDMX 201140
TAFOTM
TAF
KOTM 201140Z 2012/2112 06007KT P6SM -RA OVC070
     FM201600 07008KT 6SM -RA BR SCT007 OVC018
     FM202000 05007KT P6SM -DZ OVC025
     FM210000 03007KT P6SM SCT025 BKN045
     FM210300 VRB03KT P6SM BKN060
     FM210700 28004KT P6SM SCT050 BKN090=



000
FTUS43 KDMX 201140
TAFFOD
TAF
KFOD 201140Z 2012/2112 06004KT P6SM -RA SCT050 OVC070
     FM201600 04005KT P6SM -DZ BKN020
     FM202200 04005KT P6SM BKN040
     FM210100 VRB03KT P6SM BKN070
     FM210500 VRB03KT P6SM SCT080 BKN150=



000
FTUS43 KDMX 201140
TAFDSM
TAF
KDSM 201140Z 2012/2112 09007KT P6SM -RA OVC070
     FM201400 06006KT 6SM -RA BR SCT025 OVC045
     FM201900 04007KT P6SM -DZ OVC020
     FM210000 VRB04KT P6SM SCT020 BKN035
     FM210600 25004KT P6SM SCT050 BKN090=



000
FTUS43 KDMX 201140
TAFALO
TAF
KALO 201140Z 2012/2112 07004KT P6SM -RA OVC090
     FM201600 07005KT P6SM -RA OVC040
     FM202100 05005KT P6SM -DZ BKN025
     FM210200 25004KT P6SM SCT030 BKN050
     FM210500 25004KT P6SM SCT050 BKN090=



000
FTUS43 KDMX 201140
TAFDSM
TAF
KDSM 201140Z 2012/2112 09007KT P6SM -RA OVC070
     FM201400 06006KT 6SM -RA BR SCT025 OVC045
     FM201900 04007KT P6SM -DZ OVC020
     FM210000 VRB04KT P6SM SCT020 BKN035
     FM210600 25004KT P6SM SCT050 BKN090=



000
FTUS43 KDMX 201140
TAFMCW
TAF
KMCW 201140Z 2012/2112 VRB03KT P6SM OVC080
     FM201300 VRB03KT P6SM BKN045
     FM201500 VRB03KT P6SM -RA BKN025
     FM202200 VRB03KT P6SM SCT020 BKN050
     FM210100 27005KT P6SM BKN040 OVC070
     FM210400 VRB03KT P6SM SCT080 BKN150=



000
FTUS43 KDMX 200639 AAA
TAFDSM
TAF AMD
KDSM 200639Z 2007/2106 06008KT P6SM OVC100
     FM200800 06007KT P6SM -RA OVC070
     FM201300 06006KT 6SM -RA BR SCT007 OVC020
     FM201700 04007KT P6SM OVC025
     FM210000 VRB04KT P6SM BKN035=



000
FTUS43 KDMX 200639 AAA
TAFDSM
TAF AMD
KDSM 200639Z 2007/2106 06008KT P6SM OVC100
     FM200800 06007KT P6SM -RA OVC070
     FM201300 06006KT 6SM -RA BR SCT007 OVC020
     FM201700 04007KT P6SM OVC025
     FM210000 VRB04KT P6SM BKN035=



000
FTUS43 KDMX 200639 AAA
TAFDSM
TAF AMD
KDSM 200639Z 2007/2106 06008KT P6SM OVC100
     FM200800 06007KT P6SM -RA OVC070
     FM201300 06006KT 6SM -RA BR SCT007 OVC020
     FM201700 04007KT P6SM OVC025
     FM210000 VRB04KT P6SM BKN035=



000
FTUS43 KDMX 200639 AAA
TAFDSM
TAF AMD
KDSM 200639Z 2007/2106 06008KT P6SM OVC100
     FM200800 06007KT P6SM -RA OVC070
     FM201300 06006KT 6SM -RA BR SCT007 OVC020
     FM201700 04007KT P6SM OVC025
     FM210000 VRB04KT P6SM BKN035=



000
FTUS43 KDMX 200520
TAFMCW
TAF
KMCW 200520Z 2006/2106 05010KT P6SM BKN100
     FM201000 VRB03KT P6SM BKN080
     FM201500 VRB03KT P6SM BKN030
     FM201900 VRB03KT P6SM BKN050
     FM210100 27005KT P6SM BKN070=



000
FTUS43 KDMX 200520
TAFALO
TAF
KALO 200520Z 2006/2106 06006KT P6SM BKN150
     FM201000 06004KT P6SM -RA OVC080
     FM201500 07005KT P6SM -RA OVC030
     FM201900 05005KT P6SM BKN050
     FM210000 25004KT P6SM BKN070=



000
FTUS43 KDMX 200520
TAFDSM
TAF
KDSM 200520Z 2006/2106 06008KT P6SM OVC100
     FM200900 06007KT P6SM -RA OVC070
     FM201300 06006KT 6SM -RA BR SCT007 OVC020
     FM201700 04007KT P6SM OVC025
     FM210000 VRB04KT P6SM BKN035=



000
FTUS43 KDMX 200520
TAFOTM
TAF
KOTM 200520Z 2006/2106 04007KT P6SM BKN090
     FM201100 06007KT P6SM -RA OVC060
     FM201600 07008KT 6SM -RA BR SCT007 OVC018
     FM202000 05007KT P6SM OVC025
     FM210000 03007KT P6SM BKN040
     FM210300 VRB03KT P6SM BKN060=



000
FTUS43 KDMX 200520
TAFFOD
TAF
KFOD 200520Z 2006/2106 03005KT P6SM SCT070 OVC100
     FM200900 06004KT P6SM -RA SCT040 OVC070
     FM201600 04005KT P6SM BKN020
     FM202200 04005KT P6SM BKN040
     FM210100 VRB03KT P6SM BKN070=



000
FTUS43 KDMX 200520
TAFFOD
TAF
KFOD 200520Z 2006/2106 03005KT P6SM SCT070 OVC100
     FM200900 06004KT P6SM -RA SCT040 OVC070
     FM201600 04005KT P6SM BKN020
     FM202200 04005KT P6SM BKN040
     FM210100 VRB03KT P6SM BKN070=



000
FTUS43 KDMX 200520
TAFALO
TAF
KALO 200520Z 2006/2106 06006KT P6SM BKN150
     FM201000 06004KT P6SM -RA OVC080
     FM201500 07005KT P6SM -RA OVC030
     FM201900 05005KT P6SM BKN050
     FM210000 25004KT P6SM BKN070=



000
FTUS43 KDMX 200520
TAFDSM
TAF
KDSM 200520Z 2006/2106 06008KT P6SM OVC100
     FM200900 06007KT P6SM -RA OVC070
     FM201300 06006KT 6SM -RA BR SCT007 OVC020
     FM201700 04007KT P6SM OVC025
     FM210000 VRB04KT P6SM BKN035=



000
FTUS43 KDMX 200520
TAFMCW
TAF
KMCW 200520Z 2006/2106 05010KT P6SM BKN100
     FM201000 VRB03KT P6SM BKN080
     FM201500 VRB03KT P6SM BKN030
     FM201900 VRB03KT P6SM BKN050
     FM210100 27005KT P6SM BKN070=



000
FTUS43 KDMX 200520
TAFOTM
TAF
KOTM 200520Z 2006/2106 04007KT P6SM BKN090
     FM201100 06007KT P6SM -RA OVC060
     FM201600 07008KT 6SM -RA BR SCT007 OVC018
     FM202000 05007KT P6SM OVC025
     FM210000 03007KT P6SM BKN040
     FM210300 VRB03KT P6SM BKN060=



    US Dept of Commerce
    National Oceanic and Atmospheric Administration
    National Weather Service
    1325 East West Highway
    Silver Spring, MD 20910
    Page Author: NWS Internet Services Team
Disclaimer
Information Quality
Credits
Glossary
Privacy Policy
Freedom of Information Act (FOIA)
About Us
Career Opportunities